Nearby METAR Reports

 

KFIN - Palm Coast, Florida, USA
Distance from station: ENE 9mi, 15km
Updated: Wed, 14-Apr-2021 9:50am EDT
Clear
Clear
 Wind from S
Wind: S 5 mph , 7 km/h
Temperature: 72°F , 22°C
Dew Point: 66°F , 19°C
Humidity: 83%
Barometer: 30.13 inHg , 1020.3 hPa
Clouds: Clear
Visibility: 10 miles , 16 km
2021/04/14 13:50 KFIN 141350Z 18004KT 10SM CLR 22/19 A3013
KOMN - Ormond Beach Vor, Florida, USA
Distance from station: ESE 17mi, 27km
Updated: Wed, 14-Apr-2021 9:50am EDT
Clear
Clear
 Wind from calm
Wind: Calm
Temperature: 70°F , 21°C
Dew Point: 64°F , 18°C
Humidity: 83%
Barometer: 30.14 inHg , 1020.7 hPa
Clouds: Clear
Visibility: 7 miles , 11 km
2021/04/14 13:50 KOMN 141350Z 00000KT 7SM CLR 21/18 A3014
 
KDAB - Daytona Beach, Florida, USA
Distance from station: SE 24mi, 39km
Updated: Wed, 14-Apr-2021 9:53am EDT
Mostly cloudy
Mostly cloudy
 Wind from S
Wind: S 5 mph , 7 km/h
Temperature: 72°F , 22°C
Dew Point: 64°F , 18°C
Humidity: 78%
Barometer: 30.14 inHg , 1020.7 hPa
Clouds: Mostly cloudy
Visibility: 10 miles , 16 km
Cloud details: Mostly cloudy 20000 ft
2021/04/14 13:53 KDAB 141353Z 18004KT 10SM BKN200 22/18 A3014 RMK AO2 SLP204 T02220183
KDED - Deland, Florida, USA
Distance from station: S 26mi, 41km
Updated: Wed, 14-Apr-2021 9:55am EDT
Clear
Clear
 Wind from SSE
Wind: SSE 7 mph , 11 km/h
Temperature: 72°F , 22°C
Dew Point: 66°F , 19°C
Humidity: 83%
Barometer: 30.14 inHg , 1020.7 hPa
Clouds: Clear
Visibility: 10 miles , 16 km
2021/04/14 13:55 KDED 141355Z AUTO 15006KT 10SM CLR 22/19 A3014 RMK AO2 T02210191
 
KEVB - New Smyrna Beach, Florida, USA
Distance from station: SE 36mi, 58km
Updated: Wed, 14-Apr-2021 9:47am EDT
Clear
Clear
 Wind from SSW
Wind: SSW 6 mph , 9 km/h
Temperature: 73°F , 23°C
Dew Point: 66°F , 19°C
Humidity: 78%
Barometer: 30.13 inHg , 1020.3 hPa
Clouds: Clear
Visibility: 10 miles , 16 km
2021/04/14 13:47 KEVB 141347Z 20005KT 10SM CLR 23/19 A3013
KSGJ - St Augustine, Florida, USA
Distance from station: N 37mi, 60km
Updated: Wed, 14-Apr-2021 9:56am EDT
Clear
Clear
 Wind from S
Wind: S 16 mph , 26 km/h
Temperature: 73°F , 23°C
Dew Point: 64°F , 18°C
Humidity: 74%
Barometer: 30.13 inHg , 1020.3 hPa
Clouds: Clear
Visibility: 10 miles , 16 km
2021/04/14 13:56 KSGJ 141356Z 17014KT 10SM CLR 23/18 A3013 RMK AO2 SLP202 T02330183 $
 
KSFB - Sanford/Orlando, Florida, USA
Distance from station: S 47mi, 75km
Updated: Wed, 14-Apr-2021 9:53am EDT
Clear
Clear
 Wind from SE
Wind: SE 8 mph , 13 km/h
Temperature: 72°F , 22°C
Dew Point: 64°F , 18°C
Humidity: 78%
Barometer: 30.14 inHg , 1020.7 hPa
Clouds: Clear
Visibility: 10 miles , 16 km
2021/04/14 13:53 KSFB 141353Z 13007KT 10SM CLR 22/18 A3014 RMK AO2 SLP203 T02170183
KVVG - The Villages, Florida, USA
Distance from station: SW 50mi, 80km
Updated: Wed, 14-Feb-2018 2:10pm EST
NOT Current

 Wind from calm
Wind: Calm
Temperature: 73°F , 23°C
Dew Point: 66°F , 19°C
Humidity: 78%
Barometer: 30.29 inHg , 1025.7 hPa
Visibility: 10 miles , 16 km
2018/02/14 19:10 KVVG 141910Z AUTO 00000KT 10SM 23/19 A3029 RMK A01